createdAt,value
2023-03-20T00:01:24.341Z,6.90
2023-03-20T00:03:52.217Z,6.90
2023-03-20T00:06:21.543Z,6.90
2023-03-20T00:08:53.268Z,6.90
2023-03-20T00:11:36.624Z,6.90
2023-03-20T00:14:09.289Z,6.90
2023-03-20T00:16:39.432Z,6.90
2023-03-20T00:19:14.363Z,6.80
2023-03-20T00:21:41.289Z,6.80
2023-03-20T00:24:08.497Z,6.80
2023-03-20T00:26:38.380Z,6.70
2023-03-20T00:29:07.291Z,6.70
2023-03-20T00:31:38.337Z,6.60
2023-03-20T00:34:11.831Z,6.60
2023-03-20T00:36:38.832Z,6.60
2023-03-20T00:39:05.713Z,6.50
2023-03-20T00:41:38.120Z,6.50
2023-03-20T00:44:27.986Z,6.50
2023-03-20T00:47:01.459Z,6.50
2023-03-20T00:49:34.968Z,6.40
2023-03-20T00:52:03.627Z,6.40
2023-03-20T00:54:31.464Z,6.40
2023-03-20T00:57:00.328Z,6.30
2023-03-20T00:59:34.258Z,6.30
2023-03-20T01:02:02.708Z,6.30
2023-03-20T01:04:42.367Z,6.30
2023-03-20T01:07:13.780Z,6.20
2023-03-20T01:09:41.689Z,6.20
2023-03-20T01:12:12.888Z,6.20
2023-03-20T01:14:39.886Z,6.10
2023-03-20T01:17:20.889Z,6.10
2023-03-20T01:19:48.148Z,6.10
2023-03-20T01:22:15.095Z,6.10
2023-03-20T01:24:42.101Z,6.00
2023-03-20T01:27:15.058Z,6.00
2023-03-20T01:29:42.225Z,6.00
2023-03-20T01:32:14.271Z,6.00
2023-03-20T01:34:41.216Z,5.90
2023-03-20T01:37:28.323Z,5.80
2023-03-20T01:39:56.812Z,5.80
2023-03-20T01:42:24.158Z,5.80
2023-03-20T01:44:53.014Z,5.70
2023-03-20T01:47:23.707Z,5.70
2023-03-20T01:50:26.597Z,5.70
2023-03-20T01:53:00.486Z,5.70
2023-03-20T01:55:28.723Z,5.60
2023-03-20T01:57:57.487Z,5.60
2023-03-20T02:00:25.721Z,5.60
2023-03-20T02:02:54.860Z,5.50
2023-03-20T02:05:23.260Z,5.50
2023-03-20T02:08:12.998Z,5.50
2023-03-20T02:10:41.619Z,5.50
2023-03-20T02:13:10.972Z,5.50
2023-03-20T02:16:02.845Z,5.50
2023-03-20T02:18:31.009Z,5.50
2023-03-20T02:21:03.590Z,5.50
2023-03-20T02:23:56.387Z,5.50
2023-03-20T02:26:38.142Z,5.60
2023-03-20T02:29:24.685Z,5.60
2023-03-20T02:32:21.057Z,5.60
2023-03-20T02:34:54.163Z,5.60
2023-03-20T02:37:42.563Z,5.70
2023-03-20T02:40:34.513Z,5.70
2023-03-20T02:43:42.271Z,5.70
2023-03-20T02:46:39.298Z,5.70
2023-03-20T02:49:31.893Z,5.70
2023-03-20T02:52:12.222Z,5.70
2023-03-20T02:54:58.303Z,5.70
2023-03-20T02:57:51.672Z,5.70
2023-03-20T03:00:39.363Z,5.70
2023-03-20T03:03:14.235Z,5.60
2023-03-20T03:06:06.809Z,5.60
2023-03-20T03:08:42.595Z,5.60
2023-03-20T03:11:10.346Z,5.60
2023-03-20T03:13:42.778Z,5.50
2023-03-20T03:16:15.997Z,5.50
2023-03-20T03:18:45.026Z,5.50
2023-03-20T03:21:16.467Z,5.50
2023-03-20T03:23:47.796Z,5.40
2023-03-20T03:26:26.537Z,5.40
2023-03-20T03:29:01.666Z,5.40
2023-03-20T03:31:30.004Z,5.40
2023-03-20T03:33:59.098Z,5.50
2023-03-20T03:36:43.124Z,5.40
2023-03-20T03:39:12.837Z,5.40
2023-03-20T03:41:52.591Z,5.40
2023-03-20T03:44:31.663Z,5.40
2023-03-20T03:47:06.504Z,5.40
2023-03-20T03:49:38.010Z,5.40
2023-03-20T03:52:11.744Z,5.30
2023-03-20T03:54:46.042Z,5.30
2023-03-20T03:57:18.049Z,5.30
2023-03-20T03:59:49.757Z,5.30
2023-03-20T04:02:19.238Z,5.20
2023-03-20T04:04:50.859Z,5.20
2023-03-20T04:07:19.221Z,5.20
2023-03-20T04:09:46.212Z,5.20
2023-03-20T04:12:43.857Z,5.10
2023-03-20T04:15:12.688Z,5.10
2023-03-20T04:17:39.869Z,5.10
2023-03-20T04:20:08.369Z,5.00
2023-03-20T04:22:35.481Z,5.00
2023-03-20T04:25:08.018Z,4.90
2023-03-20T04:27:35.345Z,4.80
2023-03-20T04:30:02.205Z,4.80
2023-03-20T04:32:29.019Z,4.80
2023-03-20T04:34:56.789Z,4.70
2023-03-20T04:37:23.620Z,4.70
2023-03-20T04:39:50.962Z,4.60
2023-03-20T04:42:17.815Z,4.50
2023-03-20T04:44:44.808Z,4.50
2023-03-20T04:47:11.618Z,4.50
2023-03-20T04:49:38.676Z,4.50
2023-03-20T04:52:05.762Z,4.50
2023-03-20T04:54:32.764Z,4.50
2023-03-20T04:56:59.562Z,4.40
2023-03-20T04:59:26.558Z,4.40
2023-03-20T05:01:53.364Z,4.40
2023-03-20T05:04:20.315Z,4.40
2023-03-20T05:06:49.251Z,4.40
2023-03-20T05:09:16.852Z,4.30
2023-03-20T05:11:44.182Z,4.30
2023-03-20T05:14:12.168Z,4.30
2023-03-20T05:16:40.300Z,4.30
2023-03-20T05:19:07.749Z,4.30
2023-03-20T05:21:34.545Z,4.30
2023-03-20T05:24:02.818Z,4.30
2023-03-20T05:26:32.602Z,4.30
2023-03-20T05:28:59.716Z,4.40
2023-03-20T05:31:27.594Z,4.40
2023-03-20T05:33:54.513Z,4.40
2023-03-20T05:36:21.318Z,4.40
2023-03-20T05:38:48.059Z,4.40
2023-03-20T05:41:14.818Z,4.40
2023-03-20T05:43:41.685Z,4.50
2023-03-20T05:46:09.572Z,4.60
2023-03-20T05:48:36.977Z,4.70
2023-03-20T05:51:04.050Z,4.80
2023-03-20T05:53:31.090Z,4.80
2023-03-20T05:55:57.930Z,4.90
2023-03-20T05:58:24.712Z,5.10
2023-03-20T06:00:51.493Z,5.10
2023-03-20T06:03:18.369Z,5.30
2023-03-20T06:05:45.512Z,5.40
2023-03-20T06:08:12.724Z,5.60
2023-03-20T06:10:39.421Z,5.70
2023-03-20T06:13:06.329Z,5.90
2023-03-20T06:15:33.144Z,6.00
2023-03-20T06:18:00.500Z,6.20
2023-03-20T06:20:27.397Z,6.40
2023-03-20T06:22:54.435Z,6.60
2023-03-20T06:25:21.594Z,6.80
2023-03-20T06:27:48.924Z,7.00
2023-03-20T06:30:16.280Z,7.20
2023-03-20T06:32:43.398Z,7.40
2023-03-20T06:35:12.057Z,7.60
2023-03-20T06:37:39.119Z,7.80
2023-03-20T06:40:06.765Z,8.00
2023-03-20T06:42:33.786Z,8.10
2023-03-20T06:45:00.840Z,8.30
2023-03-20T06:47:27.812Z,8.40
2023-03-20T06:49:54.675Z,8.50
2023-03-20T06:52:25.402Z,8.70
2023-03-20T06:54:52.201Z,8.80
2023-03-20T06:57:19.157Z,8.90
2023-03-20T06:59:46.166Z,9.10
2023-03-20T07:02:13.134Z,9.30
2023-03-20T07:04:41.619Z,9.50
2023-03-20T07:07:08.641Z,9.70
2023-03-20T07:09:35.626Z,9.90
2023-03-20T07:12:02.651Z,10.10
2023-03-20T07:14:29.467Z,10.20
2023-03-20T07:16:57.002Z,10.30
2023-03-20T07:19:23.967Z,10.40
2023-03-20T07:21:54.793Z,10.40
2023-03-20T07:24:22.011Z,10.50
2023-03-20T07:26:48.851Z,10.60
2023-03-20T07:29:16.616Z,10.70
2023-03-20T07:31:43.452Z,10.70
2023-03-20T07:34:11.043Z,10.70
2023-03-20T07:36:37.901Z,10.70
2023-03-20T07:39:04.949Z,10.80
2023-03-20T07:41:31.667Z,10.80
2023-03-20T07:43:58.569Z,10.80
2023-03-20T07:46:26.450Z,10.90
2023-03-20T07:48:53.330Z,11.00
2023-03-20T07:51:20.163Z,11.20
2023-03-20T07:53:46.898Z,11.30
2023-03-20T07:56:13.669Z,11.50
2023-03-20T07:58:40.476Z,11.70
2023-03-20T08:01:07.217Z,11.90
2023-03-20T08:03:34.149Z,12.00
2023-03-20T08:06:01.924Z,12.20
2023-03-20T08:08:29.131Z,12.40
2023-03-20T08:10:56.557Z,12.50
2023-03-20T08:13:23.301Z,12.50
2023-03-20T08:15:50.017Z,12.60
2023-03-20T08:18:17.393Z,12.60
2023-03-20T08:20:44.104Z,12.60
2023-03-20T08:23:10.895Z,12.60
2023-03-20T08:25:38.226Z,12.50
2023-03-20T08:28:05.426Z,12.40
2023-03-20T08:30:32.315Z,12.30
2023-03-20T08:32:59.301Z,12.30
2023-03-20T08:35:33.199Z,12.30
2023-03-20T08:38:01.221Z,12.30
2023-03-20T08:40:28.264Z,12.40
2023-03-20T08:42:55.113Z,12.50
2023-03-20T08:45:24.357Z,12.50
2023-03-20T08:47:51.767Z,12.50
2023-03-20T08:50:19.132Z,12.60
2023-03-20T08:52:47.056Z,12.70
2023-03-20T08:55:16.283Z,12.70
2023-03-20T08:57:43.250Z,12.80
2023-03-20T09:00:12.918Z,12.90
2023-03-20T09:02:40.120Z,13.00
2023-03-20T09:05:07.517Z,13.20
2023-03-20T09:07:34.330Z,13.40
2023-03-20T09:10:01.184Z,13.60
2023-03-20T09:12:28.246Z,13.80
2023-03-20T09:14:55.157Z,14.00
2023-03-20T09:17:22.074Z,14.10
2023-03-20T09:19:49.000Z,14.30
2023-03-20T09:22:18.211Z,14.40
2023-03-20T09:24:45.699Z,14.50
2023-03-20T09:27:14.108Z,14.50
2023-03-20T09:29:42.080Z,14.30
2023-03-20T09:32:12.655Z,14.30
2023-03-20T09:34:39.493Z,14.20
2023-03-20T09:37:06.803Z,14.20
2023-03-20T09:39:34.259Z,14.30
2023-03-20T09:42:18.496Z,14.20
2023-03-20T09:44:58.824Z,14.30
2023-03-20T09:47:34.430Z,14.30
2023-03-20T09:50:07.863Z,14.30
2023-03-20T09:52:50.142Z,14.30
2023-03-20T09:55:21.837Z,14.30
2023-03-20T09:57:54.581Z,14.30
2023-03-20T10:00:25.627Z,14.40
2023-03-20T10:02:52.388Z,14.50
2023-03-20T10:05:25.277Z,14.50
2023-03-20T10:08:16.140Z,14.60
2023-03-20T10:11:03.515Z,14.60
2023-03-20T10:14:07.757Z,14.60
2023-03-20T10:16:46.847Z,14.50
2023-03-20T10:19:16.609Z,14.40
2023-03-20T10:21:46.163Z,14.30
2023-03-20T10:24:36.279Z,14.40
2023-03-20T10:27:27.677Z,14.40
2023-03-20T10:30:16.101Z,14.40
2023-03-20T10:33:01.610Z,14.50
2023-03-20T10:35:48.322Z,14.50
2023-03-20T10:38:52.964Z,14.60
2023-03-20T10:41:25.056Z,14.50
2023-03-20T10:43:53.081Z,14.40
2023-03-20T10:46:35.204Z,14.40
2023-03-20T10:49:04.680Z,14.50
2023-03-20T10:51:55.910Z,14.50
2023-03-20T10:54:28.656Z,14.50
2023-03-20T10:56:58.918Z,14.50
2023-03-20T10:59:40.927Z,14.50
2023-03-20T11:02:15.232Z,14.50
2023-03-20T11:04:42.246Z,14.60
2023-03-20T11:07:12.069Z,14.60
2023-03-20T11:09:38.997Z,14.60
2023-03-20T11:12:05.961Z,14.60
2023-03-20T11:14:39.409Z,14.60
2023-03-20T11:17:06.844Z,14.70
2023-03-20T11:19:36.295Z,14.70
2023-03-20T11:22:23.412Z,14.60
2023-03-20T11:24:56.165Z,14.60
2023-03-20T11:27:28.876Z,14.70
2023-03-20T11:29:58.039Z,14.60
2023-03-20T11:32:31.887Z,14.50
2023-03-20T11:35:26.019Z,14.40
2023-03-20T11:37:55.698Z,14.30
2023-03-20T11:40:31.564Z,14.30
2023-03-20T11:43:01.276Z,14.20
2023-03-20T11:45:39.164Z,14.10
2023-03-20T11:48:14.816Z,14.10
2023-03-20T11:50:59.520Z,14.00
2023-03-20T11:53:34.113Z,14.00
2023-03-20T11:56:21.817Z,14.00
2023-03-20T11:59:18.219Z,14.00
2023-03-20T12:01:51.783Z,14.00
2023-03-20T12:04:42.899Z,14.10
2023-03-20T12:07:38.149Z,14.10
2023-03-20T12:10:11.310Z,14.10
2023-03-20T12:12:45.729Z,14.10
2023-03-20T12:15:34.250Z,14.10
2023-03-20T12:18:15.793Z,14.20
2023-03-20T12:21:27.688Z,14.20
2023-03-20T12:24:04.950Z,14.30
2023-03-20T12:26:42.918Z,14.30
2023-03-20T12:29:27.710Z,14.30
2023-03-20T12:32:09.652Z,14.20
2023-03-20T12:34:50.605Z,14.10
2023-03-20T12:37:18.513Z,14.00
2023-03-20T12:39:54.840Z,13.90
2023-03-20T12:42:34.461Z,13.80
2023-03-20T12:45:12.942Z,13.90
2023-03-20T12:47:51.043Z,13.90
2023-03-20T12:50:41.811Z,14.00
2023-03-20T12:53:50.059Z,14.20
2023-03-20T12:56:29.812Z,14.40
2023-03-20T12:59:10.456Z,14.60
2023-03-20T13:02:03.912Z,14.70
2023-03-20T13:04:50.701Z,14.70
2023-03-20T13:07:24.174Z,14.80
2023-03-20T13:10:09.285Z,14.80
2023-03-20T13:12:55.031Z,14.90
2023-03-20T13:15:28.523Z,14.90
2023-03-20T13:18:04.103Z,14.90
2023-03-20T13:20:40.158Z,14.80
2023-03-20T13:23:12.572Z,14.70
2023-03-20T13:25:43.486Z,14.70
2023-03-20T13:28:15.485Z,14.60
2023-03-20T13:31:01.391Z,14.50
2023-03-20T13:33:51.105Z,14.40
2023-03-20T13:36:24.710Z,14.30
2023-03-20T13:39:01.138Z,14.30
2023-03-20T13:41:28.779Z,14.20
2023-03-20T13:44:01.744Z,14.20
2023-03-20T13:46:38.272Z,14.10
2023-03-20T13:49:16.597Z,14.10
2023-03-20T13:51:54.794Z,14.00
2023-03-20T13:54:51.620Z,14.00
2023-03-20T13:57:48.535Z,14.10
2023-03-20T14:00:38.888Z,14.10
2023-03-20T14:03:21.131Z,14.20
2023-03-20T14:05:48.094Z,14.40
2023-03-20T14:08:21.371Z,14.40
2023-03-20T14:10:48.556Z,14.40
2023-03-20T14:13:18.478Z,14.40
2023-03-20T14:15:52.217Z,14.40
2023-03-20T14:18:21.523Z,14.40
2023-03-20T14:20:56.330Z,14.30
2023-03-20T14:24:01.091Z,14.20
2023-03-20T14:26:31.364Z,14.10
2023-03-20T14:29:10.181Z,14.00
2023-03-20T14:31:45.431Z,13.90
2023-03-20T14:34:12.320Z,13.80
2023-03-20T14:37:03.340Z,13.70
2023-03-20T14:39:42.477Z,13.60
2023-03-20T14:42:15.123Z,13.50
2023-03-20T14:45:07.614Z,13.50
2023-03-20T14:47:59.494Z,13.40
2023-03-20T14:50:35.598Z,13.40
2023-03-20T14:53:13.128Z,13.40
2023-03-20T14:55:55.008Z,13.40
2023-03-20T14:59:02.841Z,13.40
2023-03-20T15:01:38.746Z,13.40
2023-03-20T15:04:15.550Z,13.40
2023-03-20T15:06:51.808Z,13.30
2023-03-20T15:09:22.012Z,13.20
2023-03-20T15:11:49.798Z,13.10
2023-03-20T15:14:28.960Z,13.00
2023-03-20T15:17:00.579Z,13.00
2023-03-20T15:19:27.952Z,12.90
2023-03-20T15:21:55.531Z,12.90
2023-03-20T15:24:24.556Z,12.80
2023-03-20T15:26:59.849Z,12.80
2023-03-20T15:29:27.913Z,12.70
2023-03-20T15:32:12.807Z,12.70
2023-03-20T15:34:42.355Z,12.60
2023-03-20T15:37:16.644Z,12.60
2023-03-20T15:39:46.580Z,12.50
2023-03-20T15:42:16.362Z,12.50
2023-03-20T15:44:48.237Z,12.40
2023-03-20T15:47:20.855Z,12.40
2023-03-20T15:49:56.624Z,12.30
2023-03-20T15:52:30.736Z,12.30
2023-03-20T15:55:00.205Z,12.20
2023-03-20T15:57:35.598Z,12.20
2023-03-20T16:00:06.182Z,12.10
2023-03-20T16:02:33.166Z,12.10
2023-03-20T16:05:00.099Z,12.10
2023-03-20T16:07:31.046Z,12.10
2023-03-20T16:09:59.663Z,12.10
2023-03-20T16:12:27.272Z,12.10
2023-03-20T16:14:54.800Z,12.10
2023-03-20T16:17:23.947Z,12.10
2023-03-20T16:19:51.783Z,12.20
2023-03-20T16:22:24.217Z,12.20
2023-03-20T16:24:55.525Z,12.20
2023-03-20T16:27:37.277Z,12.20
2023-03-20T16:30:12.339Z,12.20
2023-03-20T16:32:51.112Z,12.20
2023-03-20T16:35:20.025Z,12.10
2023-03-20T16:37:57.745Z,12.00
2023-03-20T16:40:37.571Z,12.00
2023-03-20T16:43:14.487Z,11.80
2023-03-20T16:45:57.390Z,11.80
2023-03-20T16:48:33.486Z,11.70
2023-03-20T16:51:18.370Z,11.60
2023-03-20T16:53:48.222Z,11.60
2023-03-20T16:56:26.770Z,11.50
2023-03-20T16:58:56.643Z,11.40
2023-03-20T17:01:27.099Z,11.30
2023-03-20T17:04:11.288Z,11.20
2023-03-20T17:06:43.439Z,11.20
2023-03-20T17:09:12.876Z,11.10
2023-03-20T17:11:44.628Z,11.00
2023-03-20T17:14:11.349Z,11.00
2023-03-20T17:16:40.189Z,10.90
2023-03-20T17:19:16.925Z,10.80
2023-03-20T17:21:45.983Z,10.80
2023-03-20T17:24:14.225Z,10.70
2023-03-20T17:26:45.641Z,10.70
2023-03-20T17:29:12.815Z,10.70
2023-03-20T17:31:39.900Z,10.60
2023-03-20T17:34:06.793Z,10.50
2023-03-20T17:36:34.990Z,10.40
2023-03-20T17:39:02.346Z,10.40
2023-03-20T17:41:29.564Z,10.30
2023-03-20T17:43:56.761Z,10.30
2023-03-20T17:46:29.943Z,10.20
2023-03-20T17:49:01.717Z,10.20
2023-03-20T17:51:29.008Z,10.10
2023-03-20T17:53:57.860Z,10.00
2023-03-20T17:56:30.207Z,10.00
2023-03-20T17:58:57.721Z,10.00
2023-03-20T18:01:25.394Z,9.90
2023-03-20T18:03:52.337Z,9.90
2023-03-20T18:06:25.339Z,9.80
2023-03-20T18:08:52.227Z,9.80
2023-03-20T18:11:19.082Z,9.80
2023-03-20T18:13:45.933Z,9.80
2023-03-20T18:16:24.760Z,9.80
2023-03-20T18:18:52.720Z,9.80
2023-03-20T18:21:19.660Z,9.80
2023-03-20T18:23:46.820Z,9.80
2023-03-20T18:26:21.401Z,9.90
2023-03-20T18:28:49.609Z,9.90
2023-03-20T18:31:19.141Z,9.90
2023-03-20T18:33:47.855Z,10.00
2023-03-20T18:36:20.845Z,10.00
2023-03-20T18:38:48.297Z,10.00
2023-03-20T18:41:15.223Z,10.10
2023-03-20T18:43:42.970Z,10.10
2023-03-20T18:46:21.052Z,10.10
2023-03-20T18:48:49.232Z,10.10
2023-03-20T18:51:16.010Z,10.10
2023-03-20T18:53:42.979Z,10.10
2023-03-20T18:56:18.292Z,10.10
2023-03-20T18:58:46.141Z,10.00
2023-03-20T19:01:15.551Z,10.00
2023-03-20T19:03:44.205Z,9.90
2023-03-20T19:06:15.324Z,9.90
2023-03-20T19:08:43.450Z,9.80
2023-03-20T19:11:15.362Z,9.80
2023-03-20T19:13:47.482Z,9.80
2023-03-20T19:16:24.587Z,9.80
2023-03-20T19:18:53.132Z,9.80
2023-03-20T19:21:21.924Z,9.80
2023-03-20T19:23:48.695Z,9.80
2023-03-20T19:26:17.658Z,9.80
2023-03-20T19:28:45.655Z,9.70
2023-03-20T19:31:12.786Z,9.80
2023-03-20T19:33:40.045Z,9.70
2023-03-20T19:36:08.893Z,9.80
2023-03-20T19:38:37.429Z,9.80
2023-03-20T19:41:04.467Z,9.80
2023-03-20T19:43:31.214Z,9.80
2023-03-20T19:45:59.253Z,9.90
2023-03-20T19:48:51.593Z,10.00
2023-03-20T19:51:21.625Z,10.00
2023-03-20T19:53:49.407Z,10.00
2023-03-20T19:56:17.956Z,10.10
2023-03-20T19:58:44.833Z,10.10
2023-03-20T20:01:24.076Z,10.10
2023-03-20T20:03:53.473Z,10.20
2023-03-20T20:06:22.320Z,10.30
2023-03-20T20:08:50.042Z,10.30
2023-03-20T20:11:21.052Z,10.30
2023-03-20T20:14:05.656Z,10.40
2023-03-20T20:16:36.528Z,10.40
2023-03-20T20:19:04.444Z,10.40
2023-03-20T20:24:18.615Z,10.30
2023-03-20T20:26:55.607Z,10.30
2023-03-20T20:29:30.018Z,10.20
2023-03-20T20:31:56.858Z,10.20
2023-03-20T20:39:58.653Z,10.10
2023-03-20T20:42:25.513Z,10.00
2023-03-20T20:44:52.708Z,10.00
2023-03-20T20:47:19.572Z,9.90
2023-03-20T20:49:47.371Z,9.90
2023-03-20T20:52:14.806Z,9.80
2023-03-20T20:54:44.340Z,9.80
2023-03-20T20:57:11.999Z,9.70
2023-03-20T20:59:40.403Z,9.70
2023-03-20T21:02:11.755Z,9.70
2023-03-20T21:04:40.355Z,9.70
2023-03-20T21:07:11.456Z,9.60
2023-03-20T21:09:39.447Z,9.70
2023-03-20T21:12:08.244Z,9.60
2023-03-20T21:14:42.048Z,9.60
2023-03-20T21:17:10.496Z,9.60
2023-03-20T21:19:42.153Z,9.60
2023-03-20T21:22:11.686Z,9.50
2023-03-20T21:24:39.852Z,9.50
2023-03-20T21:27:12.306Z,9.50
2023-03-20T21:29:41.530Z,9.50
2023-03-20T21:32:12.466Z,9.50
2023-03-20T21:34:41.726Z,9.50
2023-03-20T21:38:15.779Z,9.50
2023-03-20T21:39:59.551Z,9.40
2023-03-20T21:42:26.277Z,9.40
2023-03-20T21:45:56.121Z,9.40
2023-03-20T21:48:23.554Z,9.40
2023-03-20T22:02:04.175Z,9.30
2023-03-20T22:07:42.739Z,9.40
2023-03-20T22:11:09.693Z,9.30
2023-03-20T22:19:17.880Z,9.30
2023-03-20T22:36:06.889Z,9.20
2023-03-20T22:41:49.678Z,9.10
2023-03-20T22:49:06.599Z,9.00
2023-03-20T22:51:40.971Z,9.00
2023-03-20T22:54:11.228Z,8.90
2023-03-20T22:56:39.446Z,8.90
2023-03-20T22:59:08.621Z,8.90
2023-03-20T23:01:38.508Z,8.90
2023-03-20T23:04:06.662Z,8.90
2023-03-20T23:06:33.928Z,8.80
2023-03-20T23:09:05.686Z,8.80
2023-03-20T23:11:41.551Z,8.80
2023-03-20T23:14:18.141Z,8.80
2023-03-20T23:16:47.330Z,8.70
2023-03-20T23:19:14.463Z,8.80
2023-03-20T23:21:41.626Z,8.70
2023-03-20T23:24:09.799Z,8.70
2023-03-20T23:26:36.774Z,8.70
2023-03-20T23:29:03.990Z,8.70
2023-03-20T23:31:31.228Z,8.70
2023-03-20T23:34:00.324Z,8.70
2023-03-20T23:36:36.582Z,8.70
2023-03-20T23:39:06.151Z,8.70
2023-03-20T23:42:04.556Z,8.80
2023-03-20T23:44:21.302Z,8.80
2023-03-20T23:46:48.739Z,8.70
2023-03-20T23:49:19.027Z,8.70
2023-03-20T23:51:46.344Z,8.80
2023-03-20T23:54:13.541Z,8.70
2023-03-20T23:56:41.295Z,8.80
2023-03-20T23:59:21.111Z,8.80
